createdAt,value
2022-09-03T00:01:27.208Z,97713.41
2022-09-03T00:03:56.272Z,97717.13
2022-09-03T00:06:22.756Z,97718.22
2022-09-03T00:08:49.176Z,97709.63
2022-09-03T00:11:17.637Z,97715.25
2022-09-03T00:13:43.990Z,97705.59
2022-09-03T00:16:11.962Z,97705.06
2022-09-03T00:18:38.303Z,97702.66
2022-09-03T00:21:04.695Z,97705.34
2022-09-03T00:23:30.999Z,97710.16
2022-09-03T00:25:57.425Z,97716.56
2022-09-03T00:28:24.040Z,97710.66
2022-09-03T00:30:51.040Z,97708.25
2022-09-03T00:33:17.432Z,97706.91
2022-09-03T00:35:43.715Z,97706.91
2022-09-03T00:38:10.000Z,97701.00
2022-09-03T00:40:36.587Z,97707.41
2022-09-03T00:43:03.012Z,97703.16
2022-09-03T00:45:29.408Z,97697.25
2022-09-03T00:47:55.660Z,97707.16
2022-09-03T00:50:21.929Z,97699.38
2022-09-03T00:52:48.335Z,97700.47
2022-09-03T00:55:14.660Z,97693.47
2022-09-03T00:57:40.890Z,97692.97
2022-09-03T01:00:07.605Z,97688.66
2022-09-03T01:02:34.686Z,97689.75
2022-09-03T01:05:01.221Z,97694.53
2022-09-03T01:07:28.000Z,97696.69
2022-09-03T01:09:57.532Z,97695.06
2022-09-03T01:12:23.799Z,97696.94
2022-09-03T01:14:50.137Z,97698.25
2022-09-03T01:17:16.427Z,97712.16
2022-09-03T01:19:42.715Z,97704.41
2022-09-03T01:22:09.586Z,97706.53
2022-09-03T01:24:36.346Z,97706.81
2022-09-03T01:27:02.669Z,97703.56
2022-09-03T01:29:28.941Z,97699.31
2022-09-03T01:31:55.810Z,97704.09
2022-09-03T01:34:22.064Z,97703.56
2022-09-03T01:36:48.368Z,97703.81
2022-09-03T01:39:14.622Z,97709.72
2022-09-03T01:41:41.746Z,97708.91
2022-09-03T01:44:08.006Z,97707.25
2022-09-03T01:46:34.380Z,97708.34
2022-09-03T01:49:03.303Z,97716.63
2022-09-03T01:51:29.746Z,97712.09
2022-09-03T01:53:56.391Z,97711.00
2022-09-03T01:56:22.805Z,97714.72
2022-09-03T01:58:49.221Z,97705.38
2022-09-03T02:01:16.481Z,97713.66
2022-09-03T02:03:44.611Z,97709.63
2022-09-03T02:06:12.940Z,97719.53
2022-09-03T02:08:39.933Z,97716.31
2022-09-03T02:11:06.220Z,97726.19
2022-09-03T02:13:32.483Z,97730.72
2022-09-03T02:15:58.811Z,97728.31
2022-09-03T02:18:26.059Z,97727.47
2022-09-03T02:20:52.483Z,97725.06
2022-09-03T02:23:18.762Z,97726.13
2022-09-03T02:25:51.531Z,97724.50
2022-09-03T02:28:18.000Z,97722.34
2022-09-03T02:30:44.554Z,97716.19
2022-09-03T02:33:10.968Z,97721.53
2022-09-03T02:35:37.275Z,97719.13
2022-09-03T02:38:03.522Z,97724.75
2022-09-03T02:40:30.023Z,97716.97
2022-09-03T02:42:56.388Z,97714.56
2022-09-03T02:45:22.682Z,97715.63
2022-09-03T02:47:49.083Z,97723.13
2022-09-03T02:50:15.348Z,97715.31
2022-09-03T02:52:41.712Z,97718.25
2022-09-03T02:55:08.516Z,97718.53
2022-09-03T02:57:34.843Z,97718.78
2022-09-03T03:00:01.173Z,97707.53
2022-09-03T03:02:27.570Z,97705.94
2022-09-03T03:04:53.970Z,97709.66
2022-09-03T03:07:20.445Z,97709.13
2022-09-03T03:09:46.687Z,97709.38
2022-09-03T03:12:13.579Z,97712.31
2022-09-03T03:14:39.818Z,97709.06
2022-09-03T03:17:06.158Z,97709.34
2022-09-03T03:19:32.544Z,97705.31
2022-09-03T03:21:58.871Z,97701.84
2022-09-03T03:24:25.300Z,97701.28
2022-09-03T03:26:51.653Z,97701.53
2022-09-03T03:29:17.983Z,97706.09
2022-09-03T03:31:44.284Z,97707.41
2022-09-03T03:34:10.550Z,97706.59
2022-09-03T03:36:37.006Z,97705.22
2022-09-03T03:39:03.324Z,97713.50
2022-09-03T03:41:29.669Z,97712.72
2022-09-03T03:43:56.959Z,97711.91
2022-09-03T03:46:23.443Z,97713.22
2022-09-03T03:48:50.043Z,97709.75
2022-09-03T03:51:18.469Z,97707.34
2022-09-03T03:53:44.937Z,97708.38
2022-09-03T03:56:13.359Z,97709.47
2022-09-03T03:58:39.594Z,97710.50
2022-09-03T04:01:06.254Z,97704.38
2022-09-03T04:03:32.560Z,97705.69
2022-09-03T04:05:59.054Z,97703.28
2022-09-03T04:08:25.494Z,97700.84
2022-09-03T04:10:52.068Z,97697.63
2022-09-03T04:13:18.356Z,97698.69
2022-09-03T04:15:44.620Z,97705.91
2022-09-03T04:18:13.534Z,97696.53
2022-09-03T04:20:40.221Z,97699.44
2022-09-03T04:23:06.915Z,97707.47
2022-09-03T04:25:36.212Z,97705.88
2022-09-03T04:28:02.476Z,97706.91
2022-09-03T04:30:28.831Z,97706.09
2022-09-03T04:32:55.880Z,97700.22
2022-09-03T04:35:22.172Z,97707.44
2022-09-03T04:37:48.608Z,97694.31
2022-09-03T04:40:14.976Z,97695.38
2022-09-03T04:42:41.348Z,97708.72
2022-09-03T04:45:07.908Z,97698.31
2022-09-03T04:47:34.147Z,97709.53
2022-09-03T04:50:00.346Z,97698.84
2022-09-03T04:52:26.559Z,97702.91
2022-09-03T04:54:53.048Z,97699.50
2022-09-03T04:57:19.219Z,97703.56
2022-09-03T04:59:45.782Z,97699.06
2022-09-03T05:02:12.057Z,97698.84
2022-09-03T05:04:38.265Z,97699.69
2022-09-03T05:07:05.923Z,97701.59
2022-09-03T05:09:32.248Z,97707.47
2022-09-03T05:11:58.469Z,97713.34
2022-09-03T05:14:24.736Z,97719.00
2022-09-03T05:16:52.716Z,97714.03
2022-09-03T05:19:19.599Z,97707.16
2022-09-03T05:21:45.813Z,97706.19
2022-09-03T05:24:12.035Z,97707.25
2022-09-03T05:26:38.484Z,97712.94
2022-09-03T05:29:04.940Z,97712.16
2022-09-03T05:31:31.209Z,97708.75
2022-09-03T05:33:57.629Z,97709.81
2022-09-03T05:36:23.941Z,97706.38
2022-09-03T05:38:50.618Z,97709.63
2022-09-03T05:41:17.422Z,97705.13
2022-09-03T05:43:45.392Z,97707.53
2022-09-03T05:46:11.807Z,97706.50
2022-09-03T05:48:38.198Z,97708.91
2022-09-03T05:51:04.584Z,97705.16
2022-09-03T05:53:30.946Z,97715.38
2022-09-03T05:55:57.285Z,97708.13
2022-09-03T05:58:23.846Z,97714.03
2022-09-03T06:00:50.341Z,97707.28
2022-09-03T06:03:16.753Z,97712.38
2022-09-03T06:05:43.630Z,97713.69
2022-09-03T06:08:12.664Z,97714.19
2022-09-03T06:10:41.366Z,97723.28
2022-09-03T06:13:07.634Z,97711.16
2022-09-03T06:15:33.991Z,97710.84
2022-09-03T06:18:04.276Z,97718.28
2022-09-03T06:20:35.011Z,97719.84
2022-09-03T06:23:03.148Z,97714.13
2022-09-03T06:25:29.414Z,97710.31
2022-09-03T06:27:55.656Z,97711.88
2022-09-03T06:30:21.923Z,97708.84
2022-09-03T06:32:48.234Z,97710.09
2022-09-03T06:35:14.750Z,97722.88
2022-09-03T06:37:41.221Z,97722.75
2022-09-03T06:40:07.962Z,97727.47
2022-09-03T06:42:34.332Z,97728.44
2022-09-03T06:45:00.741Z,97735.34
2022-09-03T06:47:27.755Z,97716.91
2022-09-03T06:49:54.053Z,97721.59
2022-09-03T06:52:20.377Z,97723.59
2022-09-03T06:54:46.934Z,97726.72
2022-09-03T06:57:13.244Z,97727.09
2022-09-03T06:59:40.048Z,97717.50
2022-09-03T07:02:06.473Z,97719.19
2022-09-03T07:04:33.029Z,97719.56
2022-09-03T07:06:59.394Z,97716.19
2022-09-03T07:09:25.691Z,97716.19
2022-09-03T07:11:52.614Z,97707.56
2022-09-03T07:14:19.163Z,97709.69
2022-09-03T07:16:45.545Z,97702.31
2022-09-03T07:19:12.311Z,97704.66
2022-09-03T07:21:38.866Z,97699.69
2022-09-03T07:24:05.473Z,97704.75
2022-09-03T07:26:31.745Z,97703.34
2022-09-03T07:28:58.080Z,97699.75
2022-09-03T07:31:24.530Z,97709.88
2022-09-03T07:33:50.914Z,97710.81
2022-09-03T07:36:17.230Z,97706.84
2022-09-03T07:38:43.559Z,97700.44
2022-09-03T07:41:09.982Z,97709.19
2022-09-03T07:43:36.382Z,97706.00
2022-09-03T07:46:03.316Z,97704.72
2022-09-03T07:48:37.296Z,97711.53
2022-09-03T07:51:04.468Z,97704.78
2022-09-03T07:53:30.792Z,97699.72
2022-09-03T07:55:57.073Z,97709.72
2022-09-03T07:58:23.846Z,97705.41
2022-09-03T08:00:50.928Z,97705.06
2022-09-03T08:03:17.397Z,97709.53
2022-09-03T08:05:44.117Z,97715.91
2022-09-03T08:08:10.382Z,97709.81
2022-09-03T08:10:41.844Z,97717.13
2022-09-03T08:13:08.150Z,97728.44
2022-09-03T08:15:34.513Z,97720.88
2022-09-03T08:18:03.654Z,97718.72
2022-09-03T08:20:32.480Z,97714.69
2022-09-03T08:22:59.212Z,97721.09
2022-09-03T08:25:29.938Z,97716.47
2022-09-03T08:27:56.269Z,97716.97
2022-09-03T08:30:22.670Z,97710.13
2022-09-03T08:32:48.918Z,97708.59
2022-09-03T08:35:15.256Z,97716.25
2022-09-03T08:37:41.737Z,97711.44
2022-09-03T08:40:08.280Z,97720.88
2022-09-03T08:42:37.530Z,97704.13
2022-09-03T08:45:04.913Z,97698.03
2022-09-03T08:47:31.378Z,97701.56
2022-09-03T08:49:57.837Z,97700.25
2022-09-03T08:52:24.408Z,97696.59
2022-09-03T08:54:50.748Z,97698.19
2022-09-03T08:57:17.105Z,97691.47
2022-09-03T08:59:43.453Z,97696.75
2022-09-03T09:02:09.872Z,97696.13
2022-09-03T09:04:36.438Z,97698.81
2022-09-03T09:07:02.906Z,97690.31
2022-09-03T09:09:29.179Z,97683.28
2022-09-03T09:11:55.845Z,97673.13
2022-09-03T09:14:22.319Z,97678.25
2022-09-03T09:16:48.652Z,97680.28
2022-09-03T09:19:14.941Z,97674.47
2022-09-03T09:21:41.835Z,97670.69
2022-09-03T09:24:09.596Z,97676.03
2022-09-03T09:26:35.886Z,97668.31
2022-09-03T09:29:03.650Z,97665.47
2022-09-03T09:31:30.097Z,97656.84
2022-09-03T09:33:56.402Z,97666.84
2022-09-03T09:36:22.826Z,97669.06
2022-09-03T09:38:49.272Z,97660.94
2022-09-03T09:41:15.545Z,97678.28
2022-09-03T09:43:41.980Z,97671.56
2022-09-03T09:46:08.448Z,97659.47
2022-09-03T09:48:34.832Z,97650.84
2022-09-03T09:51:01.351Z,97662.75
2022-09-03T09:53:27.841Z,97662.56
2022-09-03T09:55:55.486Z,97653.47
2022-09-03T09:58:21.865Z,97653.25
2022-09-03T10:00:48.278Z,97641.44
2022-09-03T10:03:14.700Z,97646.84
2022-09-03T10:05:41.290Z,97661.63
2022-09-03T10:08:07.585Z,97645.94
2022-09-03T10:10:33.897Z,97649.16
2022-09-03T10:13:00.332Z,97639.16
2022-09-03T10:15:26.634Z,97646.97
2022-09-03T10:17:52.917Z,97646.34
2022-09-03T10:20:19.194Z,97643.34
2022-09-03T10:22:56.342Z,97642.25
2022-09-03T10:25:23.708Z,97655.47
2022-09-03T10:27:50.215Z,97654.66
2022-09-03T10:30:17.819Z,97648.75
2022-09-03T10:32:48.280Z,97657.97
2022-09-03T10:35:15.534Z,97646.34
2022-09-03T10:37:41.797Z,97651.44
2022-09-03T10:40:08.262Z,97650.97
2022-09-03T10:42:35.119Z,97641.25
2022-09-03T10:45:01.431Z,97655.06
2022-09-03T10:47:27.799Z,97638.84
2022-09-03T10:49:54.262Z,97654.56
2022-09-03T10:52:20.624Z,97646.72
2022-09-03T10:54:46.939Z,97646.22
2022-09-03T10:57:14.270Z,97637.31
2022-09-03T10:59:40.614Z,97643.53
2022-09-03T11:02:06.915Z,97635.41
2022-09-03T11:04:37.785Z,97635.41
2022-09-03T11:07:04.133Z,97636.53
2022-09-03T11:09:30.503Z,97648.44
2022-09-03T11:11:56.907Z,97634.16
2022-09-03T11:14:23.316Z,97633.03
2022-09-03T11:16:49.641Z,97641.44
2022-09-03T11:19:15.956Z,97639.03
2022-09-03T11:21:42.361Z,97633.94
2022-09-03T11:24:08.621Z,97635.03
2022-09-03T11:26:34.989Z,97632.31
2022-09-03T11:29:01.299Z,97623.72
2022-09-03T11:31:27.642Z,97630.53
2022-09-03T11:33:54.134Z,97628.66
2022-09-03T11:36:20.421Z,97632.56
2022-09-03T11:38:46.998Z,97623.34
2022-09-03T11:41:13.322Z,97623.84
2022-09-03T11:43:39.676Z,97627.03
2022-09-03T11:46:06.361Z,97618.94
2022-09-03T11:48:32.686Z,97617.84
2022-09-03T11:50:58.979Z,97623.84
2022-09-03T11:53:25.501Z,97630.66
2022-09-03T11:55:52.514Z,97625.75
2022-09-03T11:58:19.511Z,97619.66
2022-09-03T12:00:45.923Z,97620.44
2022-09-03T12:03:12.186Z,97620.75
2022-09-03T12:05:38.553Z,97617.84
2022-09-03T12:08:08.807Z,97614.44
2022-09-03T12:10:35.393Z,97605.25
2022-09-03T12:13:02.291Z,97606.66
2022-09-03T12:15:28.740Z,97605.06
2022-09-03T12:17:55.378Z,97601.25
2022-09-03T12:20:21.636Z,97610.16
2022-09-03T12:22:47.972Z,97603.63
2022-09-03T12:25:14.228Z,97603.63
2022-09-03T12:27:40.563Z,97606.34
2022-09-03T12:30:06.897Z,97599.84
2022-09-03T12:32:33.156Z,97607.66
2022-09-03T12:34:59.545Z,97608.97
2022-09-03T12:40:12.366Z,97607.84
2022-09-03T12:42:38.883Z,97595.44
2022-09-03T12:45:05.730Z,97592.75
2022-09-03T12:47:36.041Z,97604.63
2022-09-03T12:50:03.027Z,97608.75
2022-09-03T12:52:29.279Z,97606.06
2022-09-03T12:54:55.587Z,97610.97
2022-09-03T12:57:22.049Z,97606.94
2022-09-03T12:59:48.372Z,97607.25
2022-09-03T13:02:14.825Z,97611.84
2022-09-03T13:04:41.380Z,97614.56
2022-09-03T13:07:07.821Z,97614.84
2022-09-03T13:09:34.095Z,97617.06
2022-09-03T13:12:00.379Z,97614.66
2022-09-03T13:14:26.648Z,97609.56
2022-09-03T13:16:53.006Z,97612.56
2022-09-03T13:19:19.473Z,97621.78
2022-09-03T13:21:45.771Z,97621.78
2022-09-03T13:24:12.103Z,97619.09
2022-09-03T13:26:38.364Z,97619.09
2022-09-03T13:29:04.622Z,97622.88
2022-09-03T13:31:30.903Z,97618.28
2022-09-03T13:33:57.256Z,97614.47
2022-09-03T13:36:23.884Z,97611.44
2022-09-03T13:38:50.514Z,97614.97
2022-09-03T13:41:16.789Z,97614.97
2022-09-03T13:43:43.210Z,97612.25
2022-09-03T13:46:09.667Z,97608.28
2022-09-03T13:48:35.986Z,97602.06
2022-09-03T13:51:03.168Z,97614.75
2022-09-03T13:53:29.511Z,97609.66
2022-09-03T13:55:55.763Z,97602.69
2022-09-03T13:58:22.633Z,97598.06
2022-09-03T14:00:49.052Z,97603.47
2022-09-03T14:03:16.739Z,97603.75
2022-09-03T14:05:43.107Z,97595.97
2022-09-03T14:08:09.723Z,97599.47
2022-09-03T14:10:36.044Z,97598.66
2022-09-03T14:13:02.320Z,97605.19
2022-09-03T14:15:28.773Z,97605.19
2022-09-03T14:17:55.451Z,97604.38
2022-09-03T14:20:21.708Z,97600.56
2022-09-03T14:22:48.270Z,97605.97
2022-09-03T14:25:14.631Z,97598.16
2022-09-03T14:27:41.110Z,97607.06
2022-09-03T14:30:07.417Z,97607.38
2022-09-03T14:32:37.905Z,97601.16
2022-09-03T14:35:07.550Z,97596.88
2022-09-03T14:37:33.817Z,97608.47
2022-09-03T14:40:00.291Z,97606.88
2022-09-03T14:42:29.243Z,97609.06
2022-09-03T14:44:55.634Z,97611.25
2022-09-03T14:47:22.166Z,97607.75
2022-09-03T14:49:49.085Z,97606.97
2022-09-03T14:52:15.737Z,97606.75
2022-09-03T14:54:42.709Z,97608.63
2022-09-03T14:57:12.781Z,97615.16
2022-09-03T14:59:39.651Z,97615.44
2022-09-03T15:02:05.969Z,97604.94
2022-09-03T15:04:32.249Z,97607.16
2022-09-03T15:06:58.867Z,97611.25
2022-09-03T15:09:25.365Z,97611.25
2022-09-03T15:11:52.145Z,97615.81
2022-09-03T15:14:21.258Z,97609.66
2022-09-03T15:16:48.164Z,97623.41
2022-09-03T15:19:14.796Z,97612.63
2022-09-03T15:21:41.080Z,97623.41
2022-09-03T15:24:07.392Z,97611.03
2022-09-03T15:26:33.777Z,97610.22
2022-09-03T15:29:00.141Z,97614.03
2022-09-03T15:31:27.277Z,97609.72
2022-09-03T15:33:53.579Z,97614.34
2022-09-03T15:36:19.985Z,97613.03
2022-09-03T15:38:46.355Z,97613.84
2022-09-03T15:41:13.226Z,97613.31
2022-09-03T15:43:39.505Z,97610.13
2022-09-03T15:46:05.870Z,97614.22
2022-09-03T15:48:32.252Z,97620.72
2022-09-03T15:50:58.753Z,97621.00
2022-09-03T15:53:26.773Z,97626.72
2022-09-03T15:55:53.065Z,97627.03
2022-09-03T15:58:19.388Z,97629.22
2022-09-03T16:00:47.171Z,97627.63
2022-09-03T16:03:13.550Z,97631.41
2022-09-03T16:05:39.894Z,97634.69
2022-09-03T16:08:06.249Z,97633.88
2022-09-03T16:10:32.683Z,97629.91
2022-09-03T16:12:58.974Z,97632.09
2022-09-03T16:15:25.265Z,97630.47
2022-09-03T16:17:51.590Z,97633.19
2022-09-03T16:20:18.009Z,97639.16
2022-09-03T16:22:44.351Z,97629.50
2022-09-03T16:25:10.709Z,97635.97
2022-09-03T16:27:37.029Z,97623.06
2022-09-03T16:30:03.291Z,97626.06
2022-09-03T16:32:29.605Z,97636.06
2022-09-03T16:34:55.912Z,97630.16
2022-09-03T16:37:22.220Z,97635.84
2022-09-03T16:39:48.901Z,97634.53
2022-09-03T16:42:15.216Z,97631.34
2022-09-03T16:44:41.657Z,97635.13
2022-09-03T16:47:07.955Z,97637.31
2022-09-03T16:49:37.976Z,97634.09
2022-09-03T16:52:04.909Z,97637.06
2022-09-03T16:54:33.698Z,97633.06
2022-09-03T16:56:59.977Z,97640.66
2022-09-03T16:59:26.293Z,97642.84
2022-09-03T17:01:52.940Z,97641.13
2022-09-03T17:04:19.417Z,97654.22
2022-09-03T17:06:45.929Z,97650.22
2022-09-03T17:09:12.271Z,97655.91
2022-09-03T17:11:38.652Z,97664.28
2022-09-03T17:14:04.992Z,97672.69
2022-09-03T17:16:33.375Z,97667.59
2022-09-03T17:19:00.141Z,97672.16
2022-09-03T17:21:28.520Z,97667.38
2022-09-03T17:23:54.787Z,97666.84
2022-09-03T17:26:21.488Z,97673.34
2022-09-03T17:28:48.091Z,97669.31
2022-09-03T17:31:14.438Z,97677.72
2022-09-03T17:33:40.871Z,97683.69
2022-09-03T17:36:07.300Z,97678.09
2022-09-03T17:38:33.776Z,97686.44
2022-09-03T17:41:00.107Z,97678.66
2022-09-03T17:43:26.539Z,97685.44
2022-09-03T17:45:52.964Z,97686.00
2022-09-03T17:48:19.313Z,97685.50
2022-09-03T17:50:45.597Z,97686.59
2022-09-03T17:53:12.010Z,97689.88
2022-09-03T17:55:38.440Z,97702.03
2022-09-03T17:58:04.681Z,97696.16
2022-09-03T18:00:31.039Z,97702.91
2022-09-03T18:02:57.372Z,97708.59
2022-09-03T18:05:23.776Z,97700.81
2022-09-03T18:07:50.081Z,97712.94
2022-09-03T18:10:16.455Z,97710.53
2022-09-03T18:12:42.963Z,97718.06
2022-09-03T18:15:20.365Z,97714.09
2022-09-03T18:17:46.787Z,97712.75
2022-09-03T18:20:13.341Z,97707.13
2022-09-03T18:22:39.779Z,97709.31
2022-09-03T18:25:06.236Z,97711.50
2022-09-03T18:27:32.573Z,97710.19
2022-09-03T18:29:58.972Z,97711.25
2022-09-03T18:32:25.225Z,97721.56
2022-09-03T18:34:51.961Z,97721.56
2022-09-03T18:37:18.277Z,97721.03
2022-09-03T18:39:45.310Z,97726.97
2022-09-03T18:42:11.689Z,97726.19
2022-09-03T18:44:38.152Z,97731.88
2022-09-03T18:48:02.973Z,97730.53
2022-09-03T18:49:51.153Z,97732.72
2022-09-03T18:52:17.587Z,97734.88
2022-09-03T18:55:06.367Z,97744.88
2022-09-03T18:57:30.809Z,97740.03
2022-09-03T18:59:57.138Z,97739.50
2022-09-03T19:02:23.539Z,97737.91
2022-09-03T19:04:49.924Z,97737.41
2022-09-03T19:07:16.230Z,97736.88
2022-09-03T19:09:43.169Z,97737.97
2022-09-03T19:12:09.575Z,97740.97
2022-09-03T19:14:35.895Z,97743.13
2022-09-03T19:17:02.168Z,97746.13
2022-09-03T19:19:28.897Z,97741.00
2022-09-03T19:21:59.599Z,97739.38
2022-09-03T19:24:26.226Z,97738.09
2022-09-03T19:26:53.058Z,97745.34
2022-09-03T19:29:20.031Z,97751.03
2022-09-03T19:31:46.430Z,97745.13
2022-09-03T19:34:12.793Z,97750.50
2022-09-03T19:36:39.073Z,97750.78
2022-09-03T19:39:05.388Z,97750.28
2022-09-03T19:41:32.889Z,97752.16
2022-09-03T19:43:59.285Z,97751.63
2022-09-03T19:46:26.154Z,97747.34
2022-09-03T19:48:52.903Z,97748.69
2022-09-03T19:51:20.178Z,97741.72
2022-09-03T19:53:46.544Z,97746.53
2022-09-03T19:56:13.035Z,97753.03
2022-09-03T19:58:43.688Z,97756.00
2022-09-03T20:01:10.524Z,97768.94
2022-09-03T20:03:36.920Z,97764.63
2022-09-03T20:06:05.541Z,97765.72
2022-09-03T20:08:35.606Z,97763.31
2022-09-03T20:11:01.962Z,97770.59
2022-09-03T20:13:30.306Z,97771.97
2022-09-03T20:15:56.971Z,97773.84
2022-09-03T20:18:23.405Z,97778.41
2022-09-03T20:20:50.211Z,97785.69
2022-09-03T20:23:16.515Z,97794.03
2022-09-03T20:25:43.278Z,97795.41
2022-09-03T20:28:09.549Z,97798.88
2022-09-03T20:30:35.861Z,97807.25
2022-09-03T20:33:03.478Z,97805.66
2022-09-03T20:35:32.102Z,97802.44
2022-09-03T20:37:59.257Z,97797.34
2022-09-03T20:40:29.014Z,97804.59
2022-09-03T20:42:55.840Z,97807.56
2022-09-03T20:45:22.180Z,97808.94
2022-09-03T20:47:48.502Z,97809.75
2022-09-03T20:50:14.847Z,97809.50
2022-09-03T20:52:41.541Z,97809.78
2022-09-03T20:55:10.814Z,97814.34
2022-09-03T20:57:37.122Z,97809.25
2022-09-03T21:00:03.511Z,97814.09
2022-09-03T21:02:29.947Z,97817.88
2022-09-03T21:04:56.326Z,97812.78
2022-09-03T21:07:22.847Z,97812.78
2022-09-03T21:09:52.900Z,97817.63
2022-09-03T21:12:19.902Z,97812.53
2022-09-03T21:14:46.265Z,97813.91
2022-09-03T21:17:18.471Z,97813.91
2022-09-03T21:19:46.163Z,97813.91
2022-09-03T21:22:12.716Z,97813.34
2022-09-03T21:24:39.017Z,97822.00
2022-09-03T21:27:05.510Z,97808.06
2022-09-03T21:29:31.893Z,97818.03
2022-09-03T21:31:59.125Z,97810.28
2022-09-03T21:34:25.402Z,97811.09
2022-09-03T21:36:51.721Z,97806.53
2022-09-03T21:39:18.076Z,97809.25
2022-09-03T21:41:44.591Z,97807.13
2022-09-03T21:44:10.858Z,97809.84
2022-09-03T21:46:37.715Z,97811.72
2022-09-03T21:49:04.470Z,97805.28
2022-09-03T21:51:31.775Z,97800.75
2022-09-03T21:54:01.520Z,97802.38
2022-09-03T21:56:27.812Z,97802.13
2022-09-03T21:58:54.900Z,97807.25
2022-09-03T22:01:21.935Z,97811.53
2022-09-03T22:03:48.708Z,97804.31
2022-09-03T22:06:15.098Z,97808.63
2022-09-03T22:08:44.038Z,97803.00
2022-09-03T22:11:10.849Z,97800.31
2022-09-03T22:13:37.698Z,97797.38
2022-09-03T22:16:04.168Z,97800.63
2022-09-03T22:18:30.941Z,97802.19
2022-09-03T22:20:57.550Z,97804.63
2022-09-03T22:23:24.460Z,97810.00
2022-09-03T22:25:50.792Z,97800.91
2022-09-03T22:28:17.470Z,97807.88
2022-09-03T22:30:43.860Z,97799.56
2022-09-03T22:33:10.194Z,97798.50
2022-09-03T22:35:36.700Z,97806.28
2022-09-03T22:38:03.378Z,97804.16
2022-09-03T22:40:29.856Z,97802.00
2022-09-03T22:42:56.437Z,97800.38
2022-09-03T22:45:22.763Z,97809.00
2022-09-03T22:47:49.059Z,97800.66
2022-09-03T22:50:15.373Z,97797.72
2022-09-03T22:52:41.914Z,97798.81
2022-09-03T22:55:09.265Z,97810.06
2022-09-03T22:57:36.071Z,97806.31
2022-09-03T23:00:02.755Z,97803.09
2022-09-03T23:02:29.172Z,97812.47
2022-09-03T23:04:55.452Z,97804.16
2022-09-03T23:07:22.483Z,97807.66
2022-09-03T23:09:49.517Z,97809.00
2022-09-03T23:12:15.992Z,97809.53
2022-09-03T23:14:42.599Z,97818.09
2022-09-03T23:17:08.917Z,97814.31
2022-09-03T23:19:36.335Z,97818.59
2022-09-03T23:22:03.143Z,97806.78
2022-09-03T23:24:29.565Z,97835.78
2022-09-03T23:26:56.195Z,97837.91
2022-09-03T23:29:23.197Z,97838.44
2022-09-03T23:31:50.168Z,97834.41
2022-09-03T23:34:17.338Z,97838.41
2022-09-03T23:37:05.892Z,97837.34
2022-09-03T23:39:30.039Z,97838.41
2022-09-03T23:41:56.740Z,97844.03
2022-09-03T23:44:24.060Z,97847.25
2022-09-03T23:46:50.389Z,97848.56
2022-09-03T23:49:16.700Z,97854.19
2022-09-03T23:51:43.067Z,97847.50
2022-09-03T23:54:09.381Z,97845.59
2022-09-03T23:56:36.250Z,97846.94
2022-09-03T23:59:02.670Z,97854.72
